Flag for USA

Past Weather in Moscow State Game Refuge, Minnesota, USA — Yesterday and Last 2 Weeks

Currently: 64 °F. Overcast. (Weather station: Fillmore County Airport, USA). See more current weather

Past Weather in Moscow State Game Refuge — Graph

°F

Moscow State Game Refuge Temperature Yesterday

Maximum temperature yesterday: 84 °F (at 12:35 pm)
Minimum temperature yesterday: 68 °F (at 11:55 pm)
Average temperature yesterday: 79 °F

High & Low Weather Summary for the Past Weeks

 TemperatureHumidityPressure
High86 °F (Jun 16, 3:15 pm)100% (Jun 4, 5:15 am)30.10 "Hg (Jun 4, 5:15 am)
Low50 °F (Jun 10, 5:15 am)31% (Jun 10, 5:35 pm)29.57 "Hg (Jun 5, 5:35 pm)
Average68 °F74%29.85 "Hg
* Reported Jun 4 5:15 am — Jun 19 5:35 am, Moscow State Game Refuge. Weather by CustomWeather, © 2024

Note: Actual official high and low records may vary slightly from our data, if they occured in-between our weather recording intervals... More about our weather records

Moscow State Game Refuge Weather History for the Previous 24 Hours

Scroll right to see more
 ConditionsComfort  
Time TempWeatherWind HumidityBarometerVisibility
5:35 am
Wed, Jun 19
64 °FMostly cloudy.5 mph100%30.08 "Hg10 mi
5:15 am64 °FOvercast.7 mph100%30.07 "Hg9 mi
4:55 am64 °FOvercast.8 mph100%30.06 "Hg10 mi
4:35 am64 °FOvercast.13 mph100%30.06 "Hg10 mi
3:55 am66 °FLight rain. Overcast.9 mph100%30.04 "Hg9 mi
3:35 am66 °FMostly cloudy.10 mph100%30.03 "Hg10 mi
2:55 am68 °FLow clouds.12 mph100%30.00 "Hg10 mi
2:35 am68 °FLow clouds.12 mph100%30.00 "Hg10 mi
2:15 am68 °FLow clouds.17 mph100%30.00 "Hg10 mi
1:55 am68 °FLight rain. Fog.12 mph100%30.00 "Hg6 mi
1:35 am68 °FMostly cloudy.14 mph100%29.99 "Hg10 mi
1:15 am68 °FMostly cloudy.13 mph100%29.98 "Hg10 mi
12:55 am68 °FMostly cloudy.15 mph100%29.95 "Hg10 mi
12:35 am68 °FLight rain. Overcast.18 mph100%29.94 "Hg9 mi
12:15 am68 °FPartly cloudy.14 mph100%29.93 "Hg10 mi
11:55 pm
Tue, Jun 18
68 °FPartly cloudy.10 mph100%29.90 "Hg10 mi
11:35 pm70 °FLight rain. Partly cloudy.12 mph100%29.90 "Hg9 mi
10:55 pm70 °FLight rain. Mostly cloudy.17 mph100%29.91 "Hg9 mi
10:35 pm72 °FLight rain. Fog.21 mph100%29.89 "Hg6 mi
10:15 pm82 °FMostly cloudy.26 mph70%29.87 "Hg10 mi
9:55 pm81 °FPartly cloudy.17 mph79%29.83 "Hg10 mi
9:35 pm81 °FPassing clouds.16 mph79%29.82 "Hg10 mi
8:55 pm82 °FPassing clouds.14 mph74%29.81 "Hg10 mi
8:35 pm82 °FMostly cloudy.14 mph79%29.81 "Hg10 mi
8:15 pm82 °FMostly cloudy.13 mph79%29.81 "Hg10 mi
7:35 pm82 °FMostly cloudy.16 mph74%29.80 "Hg10 mi
7:15 pm82 °FOvercast.10 mph79%29.80 "Hg10 mi
6:55 pm82 °FMostly cloudy.15 mph79%29.79 "Hg10 mi
6:35 pm82 °FMore clouds than sun.15 mph79%29.79 "Hg9 mi
6:15 pm84 °FOvercast.17 mph70%29.78 "Hg10 mi
5:35 pm84 °FOvercast.16 mph74%29.78 "Hg10 mi
5:15 pm82 °FMostly cloudy.14 mph79%29.78 "Hg10 mi
4:55 pm84 °FMostly cloudy.15 mph74%29.78 "Hg10 mi
4:35 pm82 °FMore clouds than sun.13 mph79%29.78 "Hg10 mi
4:15 pm82 °FMostly cloudy.16 mph79%29.79 "Hg10 mi
3:35 pm84 °FPartly sunny.18 mph74%29.79 "Hg10 mi
3:15 pm84 °FCloudy.16 mph74%29.79 "Hg9 mi
2:35 pm84 °FMostly cloudy.16 mph74%29.78 "Hg10 mi
2:15 pm84 °FMostly cloudy.14 mph74%29.79 "Hg10 mi
1:55 pm84 °FMostly cloudy.16 mph74%29.78 "Hg10 mi
1:35 pm84 °FMostly cloudy.23 mph70%29.79 "Hg10 mi
1:15 pm84 °FPartly sunny.21 mph74%29.79 "Hg10 mi
12:35 pm84 °FScattered clouds.23 mph74%29.79 "Hg10 mi
12:15 pm82 °FMostly cloudy.21 mph79%29.80 "Hg10 mi
11:35 am82 °FBroken clouds.22 mph79%29.79 "Hg10 mi
11:15 am81 °FMostly cloudy.21 mph84%29.77 "Hg10 mi
10:55 am81 °FMostly cloudy.18 mph84%29.78 "Hg10 mi
10:35 am82 °FScattered clouds.18 mph84%29.78 "Hg10 mi
10:15 am81 °FPartly sunny.20 mph89%29.77 "Hg10 mi
9:55 am81 °FOvercast.21 mph84%29.77 "Hg10 mi
9:35 am79 °FPartly sunny.16 mph94%29.77 "Hg10 mi
8:55 am77 °FOvercast.22 mph100%29.78 "Hg10 mi
8:35 am77 °FOvercast.17 mph100%29.79 "Hg10 mi
Weather by CustomWeather, © 2024

See weather overview